sensor_id;sensor_type;location;lat;lon;timestamp;P1;durP1;ratioP1;P2;durP2;ratioP2
74577;SDS011;63173;49.086;33.418;2023-09-19T00:02:12;13.85;;;6.75;;
74577;SDS011;63173;49.086;33.418;2023-09-19T00:04:37;12.23;;;6.25;;
74577;SDS011;63173;49.086;33.418;2023-09-19T00:07:05;14.05;;;6.15;;
74577;SDS011;63173;49.086;33.418;2023-09-19T00:09:30;10.57;;;6.40;;
74577;SDS011;63173;49.086;33.418;2023-09-19T00:12:02;9.70;;;6.32;;
74577;SDS011;63173;49.086;33.418;2023-09-19T00:14:29;11.65;;;6.47;;
74577;SDS011;63173;49.086;33.418;2023-09-19T00:16:54;10.70;;;6.20;;
74577;SDS011;63173;49.086;33.418;2023-09-19T00:19:20;10.63;;;6.30;;
74577;SDS011;63173;49.086;33.418;2023-09-19T00:21:45;10.80;;;6.47;;
74577;SDS011;63173;49.086;33.418;2023-09-19T00:24:12;16.98;;;6.30;;
74577;SDS011;63173;49.086;33.418;2023-09-19T00:26:39;24.80;;;6.72;;
74577;SDS011;63173;49.086;33.418;2023-09-19T00:29:04;12.25;;;6.18;;
74577;SDS011;63173;49.086;33.418;2023-09-19T00:31:33;12.30;;;6.35;;
74577;SDS011;63173;49.086;33.418;2023-09-19T00:34:02;13.38;;;6.50;;
74577;SDS011;63173;49.086;33.418;2023-09-19T00:36:35;15.82;;;6.85;;
74577;SDS011;63173;49.086;33.418;2023-09-19T00:39:01;10.63;;;6.25;;
74577;SDS011;63173;49.086;33.418;2023-09-19T00:41:28;11.48;;;5.80;;
74577;SDS011;63173;49.086;33.418;2023-09-19T00:43:55;14.15;;;6.07;;
74577;SDS011;63173;49.086;33.418;2023-09-19T00:46:20;10.10;;;6.20;;
74577;SDS011;63173;49.086;33.418;2023-09-19T00:48:46;12.77;;;6.45;;
74577;SDS011;63173;49.086;33.418;2023-09-19T00:51:12;16.88;;;6.32;;
74577;SDS011;63173;49.086;33.418;2023-09-19T00:53:44;16.63;;;6.22;;
74577;SDS011;63173;49.086;33.418;2023-09-19T00:56:11;13.27;;;6.53;;
74577;SDS011;63173;49.086;33.418;2023-09-19T00:58:37;15.85;;;6.55;;
74577;SDS011;63173;49.086;33.418;2023-09-19T01:01:03;11.68;;;6.60;;
74577;SDS011;63173;49.086;33.418;2023-09-19T01:03:32;12.25;;;6.50;;
74577;SDS011;63173;49.086;33.418;2023-09-19T01:05:59;12.30;;;6.18;;
74577;SDS011;63173;49.086;33.418;2023-09-19T01:08:25;11.15;;;6.45;;
74577;SDS011;63173;49.086;33.418;2023-09-19T01:11:06;11.43;;;6.40;;
74577;SDS011;63173;49.086;33.418;2023-09-19T01:13:42;11.43;;;6.28;;
74577;SDS011;63173;49.086;33.418;2023-09-19T01:16:28;14.52;;;6.70;;
74577;SDS011;63173;49.086;33.418;2023-09-19T01:24:33;13.95;;;7.15;;
74577;SDS011;63173;49.086;33.418;2023-09-19T01:27:45;11.80;;;6.18;;
74577;SDS011;63173;49.086;33.418;2023-09-19T01:30:24;9.98;;;6.03;;
74577;SDS011;63173;49.086;33.418;2023-09-19T01:32:57;12.70;;;6.05;;
74577;SDS011;63173;49.086;33.418;2023-09-19T01:35:24;9.80;;;6.25;;
74577;SDS011;63173;49.086;33.418;2023-09-19T01:37:49;16.20;;;6.47;;
74577;SDS011;63173;49.086;33.418;2023-09-19T01:40:16;10.85;;;6.10;;
74577;SDS011;63173;49.086;33.418;2023-09-19T01:45:35;10.85;;;6.03;;
74577;SDS011;63173;49.086;33.418;2023-09-19T01:48:08;13.15;;;6.50;;
74577;SDS011;63173;49.086;33.418;2023-09-19T01:50:44;13.27;;;6.20;;
74577;SDS011;63173;49.086;33.418;2023-09-19T01:53:30;10.93;;;6.38;;
74577;SDS011;63173;49.086;33.418;2023-09-19T01:56:00;9.82;;;5.63;;
74577;SDS011;63173;49.086;33.418;2023-09-19T01:58:33;11.13;;;5.75;;
74577;SDS011;63173;49.086;33.418;2023-09-19T02:01:04;10.88;;;5.95;;
74577;SDS011;63173;49.086;33.418;2023-09-19T02:03:33;11.55;;;6.10;;
74577;SDS011;63173;49.086;33.418;2023-09-19T02:06:00;11.20;;;5.22;;
74577;SDS011;63173;49.086;33.418;2023-09-19T02:08:25;12.13;;;6.32;;
74577;SDS011;63173;49.086;33.418;2023-09-19T02:10:51;16.17;;;6.13;;
74577;SDS011;63173;49.086;33.418;2023-09-19T02:13:21;15.52;;;6.13;;
74577;SDS011;63173;49.086;33.418;2023-09-19T02:15:49;13.15;;;6.10;;
74577;SDS011;63173;49.086;33.418;2023-09-19T02:18:15;13.20;;;6.18;;
74577;SDS011;63173;49.086;33.418;2023-09-19T02:20:41;12.70;;;6.25;;
74577;SDS011;63173;49.086;33.418;2023-09-19T02:23:07;12.95;;;5.88;;
74577;SDS011;63173;49.086;33.418;2023-09-19T02:25:33;14.90;;;6.45;;
74577;SDS011;63173;49.086;33.418;2023-09-19T02:28:00;12.75;;;6.18;;
74577;SDS011;63173;49.086;33.418;2023-09-19T02:32:53;11.00;;;6.00;;
74577;SDS011;63173;49.086;33.418;2023-09-19T02:35:19;17.95;;;6.30;;
74577;SDS011;63173;49.086;33.418;2023-09-19T02:37:45;10.10;;;6.20;;
74577;SDS011;63173;49.086;33.418;2023-09-19T02:40:11;12.73;;;6.22;;
74577;SDS011;63173;49.086;33.418;2023-09-19T02:42:52;13.43;;;5.70;;
74577;SDS011;63173;49.086;33.418;2023-09-19T02:45:19;11.00;;;6.18;;
74577;SDS011;63173;49.086;33.418;2023-09-19T02:47:46;10.75;;;5.43;;
74577;SDS011;63173;49.086;33.418;2023-09-19T02:50:12;10.95;;;5.95;;
74577;SDS011;63173;49.086;33.418;2023-09-19T02:52:41;11.43;;;5.85;;
74577;SDS011;63173;49.086;33.418;2023-09-19T02:55:14;10.48;;;5.28;;
74577;SDS011;63173;49.086;33.418;2023-09-19T02:57:49;12.95;;;5.30;;
74577;SDS011;63173;49.086;33.418;2023-09-19T03:00:17;13.13;;;5.47;;
74577;SDS011;63173;49.086;33.418;2023-09-19T03:02:55;13.88;;;6.07;;
74577;SDS011;63173;49.086;33.418;2023-09-19T03:05:22;9.75;;;5.60;;
74577;SDS011;63173;49.086;33.418;2023-09-19T03:07:48;9.95;;;5.40;;
74577;SDS011;63173;49.086;33.418;2023-09-19T03:10:18;10.98;;;5.60;;
74577;SDS011;63173;49.086;33.418;2023-09-19T03:12:44;10.23;;;5.13;;
74577;SDS011;63173;49.086;33.418;2023-09-19T03:15:09;10.25;;;5.70;;
74577;SDS011;63173;49.086;33.418;2023-09-19T03:17:35;12.45;;;6.30;;
74577;SDS011;63173;49.086;33.418;2023-09-19T03:20:02;9.77;;;5.32;;
74577;SDS011;63173;49.086;33.418;2023-09-19T03:22:33;13.77;;;5.72;;
74577;SDS011;63173;49.086;33.418;2023-09-19T03:24:59;11.35;;;6.22;;
74577;SDS011;63173;49.086;33.418;2023-09-19T03:27:25;16.92;;;7.03;;
74577;SDS011;63173;49.086;33.418;2023-09-19T03:29:52;16.75;;;6.10;;
74577;SDS011;63173;49.086;33.418;2023-09-19T03:32:18;11.02;;;6.15;;
74577;SDS011;63173;49.086;33.418;2023-09-19T03:34:44;10.27;;;5.38;;
74577;SDS011;63173;49.086;33.418;2023-09-19T03:37:09;13.65;;;5.97;;
74577;SDS011;63173;49.086;33.418;2023-09-19T03:39:35;12.00;;;5.60;;
74577;SDS011;63173;49.086;33.418;2023-09-19T03:42:01;14.80;;;6.03;;
74577;SDS011;63173;49.086;33.418;2023-09-19T03:44:29;10.07;;;5.97;;
74577;SDS011;63173;49.086;33.418;2023-09-19T03:46:55;13.18;;;5.43;;
74577;SDS011;63173;49.086;33.418;2023-09-19T03:49:21;14.45;;;5.78;;
74577;SDS011;63173;49.086;33.418;2023-09-19T03:51:47;12.23;;;5.72;;
74577;SDS011;63173;49.086;33.418;2023-09-19T03:54:12;11.57;;;5.40;;
74577;SDS011;63173;49.086;33.418;2023-09-19T03:56:38;10.98;;;5.63;;
74577;SDS011;63173;49.086;33.418;2023-09-19T03:59:03;11.32;;;5.80;;
74577;SDS011;63173;49.086;33.418;2023-09-19T04:01:29;12.77;;;6.30;;
74577;SDS011;63173;49.086;33.418;2023-09-19T04:06:22;9.27;;;5.45;;
74577;SDS011;63173;49.086;33.418;2023-09-19T04:08:48;8.77;;;5.13;;
74577;SDS011;63173;49.086;33.418;2023-09-19T04:11:13;9.07;;;5.15;;
74577;SDS011;63173;49.086;33.418;2023-09-19T04:13:39;11.50;;;5.63;;
74577;SDS011;63173;49.086;33.418;2023-09-19T04:16:04;16.42;;;6.20;;
74577;SDS011;63173;49.086;33.418;2023-09-19T04:18:31;13.27;;;6.00;;
74577;SDS011;63173;49.086;33.418;2023-09-19T04:20:58;13.10;;;5.20;;
74577;SDS011;63173;49.086;33.418;2023-09-19T04:23:27;16.58;;;5.90;;
74577;SDS011;63173;49.086;33.418;2023-09-19T04:25:53;13.27;;;6.15;;
74577;SDS011;63173;49.086;33.418;2023-09-19T04:28:18;14.45;;;6.43;;
74577;SDS011;63173;49.086;33.418;2023-09-19T04:30:44;15.57;;;6.55;;
74577;SDS011;63173;49.086;33.418;2023-09-19T04:33:09;14.60;;;6.70;;
74577;SDS011;63173;49.086;33.418;2023-09-19T04:35:35;11.60;;;5.90;;
74577;SDS011;63173;49.086;33.418;2023-09-19T04:38:00;9.00;;;5.25;;
74577;SDS011;63173;49.086;33.418;2023-09-19T04:40:26;12.00;;;5.85;;
74577;SDS011;63173;49.086;33.418;2023-09-19T04:42:55;8.77;;;5.25;;
74577;SDS011;63173;49.086;33.418;2023-09-19T04:45:27;18.17;;;5.43;;
74577;SDS011;63173;49.086;33.418;2023-09-19T04:47:53;12.70;;;5.55;;
74577;SDS011;63173;49.086;33.418;2023-09-19T04:50:19;9.35;;;5.50;;
74577;SDS011;63173;49.086;33.418;2023-09-19T04:52:48;12.52;;;5.70;;
74577;SDS011;63173;49.086;33.418;2023-09-19T04:55:16;10.00;;;5.90;;
74577;SDS011;63173;49.086;33.418;2023-09-19T04:57:46;11.80;;;6.00;;
74577;SDS011;63173;49.086;33.418;2023-09-19T05:00:22;11.85;;;5.72;;
74577;SDS011;63173;49.086;33.418;2023-09-19T05:02:52;13.70;;;5.93;;
74577;SDS011;63173;49.086;33.418;2023-09-19T05:05:24;19.83;;;6.43;;
74577;SDS011;63173;49.086;33.418;2023-09-19T05:07:50;11.48;;;6.38;;
74577;SDS011;63173;49.086;33.418;2023-09-19T05:10:16;12.68;;;6.75;;
74577;SDS011;63173;49.086;33.418;2023-09-19T05:12:43;11.00;;;6.18;;
74577;SDS011;63173;49.086;33.418;2023-09-19T05:15:12;11.90;;;6.80;;
74577;SDS011;63173;49.086;33.418;2023-09-19T05:17:38;9.95;;;6.03;;
74577;SDS011;63173;49.086;33.418;2023-09-19T05:20:04;11.90;;;7.00;;
74577;SDS011;63173;49.086;33.418;2023-09-19T05:22:40;17.70;;;7.60;;
74577;SDS011;63173;49.086;33.418;2023-09-19T05:25:06;22.85;;;7.57;;
74577;SDS011;63173;49.086;33.418;2023-09-19T05:27:33;16.85;;;7.68;;
74577;SDS011;63173;49.086;33.418;2023-09-19T05:29:59;13.50;;;6.82;;
74577;SDS011;63173;49.086;33.418;2023-09-19T05:32:25;12.85;;;6.65;;
74577;SDS011;63173;49.086;33.418;2023-09-19T05:34:51;11.27;;;6.55;;
74577;SDS011;63173;49.086;33.418;2023-09-19T05:37:21;13.38;;;7.05;;
74577;SDS011;63173;49.086;33.418;2023-09-19T05:39:48;14.77;;;7.30;;
74577;SDS011;63173;49.086;33.418;2023-09-19T05:42:14;20.38;;;8.15;;
74577;SDS011;63173;49.086;33.418;2023-09-19T05:44:39;18.10;;;6.93;;
74577;SDS011;63173;49.086;33.418;2023-09-19T05:47:05;15.80;;;7.38;;
74577;SDS011;63173;49.086;33.418;2023-09-19T05:49:34;18.50;;;9.00;;
74577;SDS011;63173;49.086;33.418;2023-09-19T05:52:06;18.98;;;7.43;;
74577;SDS011;63173;49.086;33.418;2023-09-19T05:54:31;22.30;;;8.00;;
74577;SDS011;63173;49.086;33.418;2023-09-19T05:56:59;15.07;;;7.00;;
74577;SDS011;63173;49.086;33.418;2023-09-19T05:59:25;25.98;;;8.23;;
74577;SDS011;63173;49.086;33.418;2023-09-19T06:01:50;15.75;;;8.10;;
74577;SDS011;63173;49.086;33.418;2023-09-19T06:04:17;20.30;;;8.55;;
74577;SDS011;63173;49.086;33.418;2023-09-19T06:06:44;21.15;;;7.97;;
74577;SDS011;63173;49.086;33.418;2023-09-19T06:09:09;24.48;;;8.98;;
74577;SDS011;63173;49.086;33.418;2023-09-19T06:11:35;18.92;;;7.80;;
74577;SDS011;63173;49.086;33.418;2023-09-19T06:14:01;15.50;;;7.95;;
74577;SDS011;63173;49.086;33.418;2023-09-19T06:16:28;20.70;;;9.50;;
74577;SDS011;63173;49.086;33.418;2023-09-19T06:18:54;23.25;;;8.70;;
74577;SDS011;63173;49.086;33.418;2023-09-19T06:21:21;24.35;;;8.85;;
74577;SDS011;63173;49.086;33.418;2023-09-19T06:23:47;28.30;;;12.60;;
74577;SDS011;63173;49.086;33.418;2023-09-19T06:26:12;16.45;;;8.13;;
74577;SDS011;63173;49.086;33.418;2023-09-19T06:28:38;18.25;;;7.93;;
74577;SDS011;63173;49.086;33.418;2023-09-19T06:31:03;19.00;;;7.63;;
74577;SDS011;63173;49.086;33.418;2023-09-19T06:33:33;24.52;;;9.00;;
74577;SDS011;63173;49.086;33.418;2023-09-19T06:35:58;22.50;;;7.90;;
74577;SDS011;63173;49.086;33.418;2023-09-19T06:38:25;16.92;;;7.70;;
74577;SDS011;63173;49.086;33.418;2023-09-19T06:40:50;15.50;;;7.45;;
74577;SDS011;63173;49.086;33.418;2023-09-19T06:43:16;21.02;;;7.40;;
74577;SDS011;63173;49.086;33.418;2023-09-19T06:45:42;22.85;;;7.57;;
74577;SDS011;63173;49.086;33.418;2023-09-19T06:48:07;17.83;;;9.23;;
74577;SDS011;63173;49.086;33.418;2023-09-19T06:50:34;16.77;;;7.05;;
74577;SDS011;63173;49.086;33.418;2023-09-19T06:53:01;21.45;;;7.47;;
74577;SDS011;63173;49.086;33.418;2023-09-19T06:55:26;19.63;;;7.10;;
74577;SDS011;63173;49.086;33.418;2023-09-19T06:57:56;17.42;;;7.65;;
74577;SDS011;63173;49.086;33.418;2023-09-19T07:00:22;18.33;;;8.05;;
74577;SDS011;63173;49.086;33.418;2023-09-19T07:05:34;17.23;;;7.10;;
74577;SDS011;63173;49.086;33.418;2023-09-19T07:08:03;20.15;;;9.15;;
74577;SDS011;63173;49.086;33.418;2023-09-19T07:10:31;14.38;;;6.75;;
74577;SDS011;63173;49.086;33.418;2023-09-19T07:12:57;14.18;;;6.57;;
74577;SDS011;63173;49.086;33.418;2023-09-19T07:15:24;17.23;;;6.53;;
74577;SDS011;63173;49.086;33.418;2023-09-19T07:17:53;17.80;;;6.28;;
74577;SDS011;63173;49.086;33.418;2023-09-19T07:20:19;19.75;;;6.80;;
74577;SDS011;63173;49.086;33.418;2023-09-19T07:22:45;23.25;;;6.53;;
74577;SDS011;63173;49.086;33.418;2023-09-19T07:25:13;14.25;;;6.13;;
74577;SDS011;63173;49.086;33.418;2023-09-19T07:27:40;11.50;;;6.80;;
74577;SDS011;63173;49.086;33.418;2023-09-19T07:30:07;13.00;;;6.13;;
74577;SDS011;63173;49.086;33.418;2023-09-19T07:32:33;11.95;;;6.28;;
74577;SDS011;63173;49.086;33.418;2023-09-19T07:35:02;15.70;;;5.93;;
74577;SDS011;63173;49.086;33.418;2023-09-19T07:37:29;9.80;;;6.32;;
74577;SDS011;63173;49.086;33.418;2023-09-19T07:39:56;16.60;;;7.22;;
74577;SDS011;63173;49.086;33.418;2023-09-19T07:42:22;11.68;;;5.63;;
74577;SDS011;63173;49.086;33.418;2023-09-19T07:44:47;12.65;;;6.18;;
74577;SDS011;63173;49.086;33.418;2023-09-19T07:47:15;14.30;;;6.45;;
74577;SDS011;63173;49.086;33.418;2023-09-19T07:49:41;15.68;;;6.25;;
74577;SDS011;63173;49.086;33.418;2023-09-19T07:52:10;15.00;;;6.30;;
74577;SDS011;63173;49.086;33.418;2023-09-19T07:54:35;12.25;;;6.72;;
74577;SDS011;63173;49.086;33.418;2023-09-19T07:57:03;13.10;;;5.60;;
74577;SDS011;63173;49.086;33.418;2023-09-19T07:59:29;12.43;;;5.75;;
74577;SDS011;63173;49.086;33.418;2023-09-19T08:01:55;15.00;;;6.03;;
74577;SDS011;63173;49.086;33.418;2023-09-19T08:04:20;10.50;;;6.10;;
74577;SDS011;63173;49.086;33.418;2023-09-19T08:06:46;9.20;;;5.80;;
74577;SDS011;63173;49.086;33.418;2023-09-19T08:09:11;14.15;;;6.65;;
74577;SDS011;63173;49.086;33.418;2023-09-19T08:11:39;18.33;;;6.72;;
74577;SDS011;63173;49.086;33.418;2023-09-19T08:14:04;17.08;;;7.50;;
74577;SDS011;63173;49.086;33.418;2023-09-19T08:16:32;13.55;;;6.22;;
74577;SDS011;63173;49.086;33.418;2023-09-19T08:18:58;15.75;;;5.80;;
74577;SDS011;63173;49.086;33.418;2023-09-19T08:21:23;15.38;;;6.70;;
74577;SDS011;63173;49.086;33.418;2023-09-19T08:23:49;11.73;;;5.22;;
74577;SDS011;63173;49.086;33.418;2023-09-19T08:26:15;11.82;;;5.60;;
74577;SDS011;63173;49.086;33.418;2023-09-19T08:28:40;8.75;;;4.45;;
74577;SDS011;63173;49.086;33.418;2023-09-19T08:31:07;11.40;;;5.18;;
74577;SDS011;63173;49.086;33.418;2023-09-19T08:33:34;7.72;;;4.38;;
74577;SDS011;63173;49.086;33.418;2023-09-19T08:36:03;8.15;;;3.95;;
74577;SDS011;63173;49.086;33.418;2023-09-19T08:38:30;8.18;;;3.65;;
74577;SDS011;63173;49.086;33.418;2023-09-19T08:40:58;6.80;;;3.72;;
74577;SDS011;63173;49.086;33.418;2023-09-19T08:43:27;6.82;;;3.83;;
74577;SDS011;63173;49.086;33.418;2023-09-19T08:46:03;5.57;;;3.75;;
74577;SDS011;63173;49.086;33.418;2023-09-19T08:48:37;6.80;;;3.97;;
74577;SDS011;63173;49.086;33.418;2023-09-19T08:51:06;6.95;;;3.50;;
74577;SDS011;63173;49.086;33.418;2023-09-19T08:56:19;5.55;;;3.47;;
74577;SDS011;63173;49.086;33.418;2023-09-19T08:58:51;6.78;;;3.53;;
74577;SDS011;63173;49.086;33.418;2023-09-19T09:01:18;8.13;;;4.13;;
74577;SDS011;63173;49.086;33.418;2023-09-19T09:03:53;6.75;;;3.40;;
74577;SDS011;63173;49.086;33.418;2023-09-19T09:06:20;7.40;;;3.50;;
74577;SDS011;63173;49.086;33.418;2023-09-19T09:08:46;5.78;;;3.50;;
74577;SDS011;63173;49.086;33.418;2023-09-19T09:11:15;8.80;;;3.72;;
74577;SDS011;63173;49.086;33.418;2023-09-19T09:13:43;8.38;;;4.35;;
74577;SDS011;63173;49.086;33.418;2023-09-19T09:16:09;8.80;;;3.53;;
74577;SDS011;63173;49.086;33.418;2023-09-19T09:18:35;5.78;;;3.70;;
74577;SDS011;63173;49.086;33.418;2023-09-19T09:21:01;9.80;;;3.60;;
74577;SDS011;63173;49.086;33.418;2023-09-19T09:23:29;5.22;;;3.95;;
74577;SDS011;63173;49.086;33.418;2023-09-19T09:28:26;9.35;;;3.65;;
74577;SDS011;63173;49.086;33.418;2023-09-19T09:30:53;6.88;;;4.18;;
74577;SDS011;63173;49.086;33.418;2023-09-19T09:33:20;7.05;;;3.60;;
74577;SDS011;63173;49.086;33.418;2023-09-19T09:35:53;7.63;;;4.07;;
74577;SDS011;63173;49.086;33.418;2023-09-19T09:38:28;7.03;;;3.97;;
74577;SDS011;63173;49.086;33.418;2023-09-19T09:40:58;6.57;;;3.83;;
74577;SDS011;63173;49.086;33.418;2023-09-19T09:43:35;12.07;;;3.88;;
74577;SDS011;63173;49.086;33.418;2023-09-19T09:46:15;10.07;;;4.60;;
74577;SDS011;63173;49.086;33.418;2023-09-19T09:48:47;12.30;;;4.43;;
74577;SDS011;63173;49.086;33.418;2023-09-19T09:51:42;7.63;;;4.22;;
74577;SDS011;63173;49.086;33.418;2023-09-19T09:54:24;8.35;;;4.43;;
74577;SDS011;63173;49.086;33.418;2023-09-19T09:57:04;6.72;;;3.70;;
74577;SDS011;63173;49.086;33.418;2023-09-19T09:59:51;6.43;;;3.70;;
74577;SDS011;63173;49.086;33.418;2023-09-19T10:02:24;6.32;;;3.75;;
74577;SDS011;63173;49.086;33.418;2023-09-19T10:07:44;6.15;;;3.60;;
74577;SDS011;63173;49.086;33.418;2023-09-19T10:10:41;5.18;;;3.53;;
74577;SDS011;63173;49.086;33.418;2023-09-19T10:13:07;5.78;;;3.53;;
74577;SDS011;63173;49.086;33.418;2023-09-19T10:15:44;6.53;;;3.70;;
74577;SDS011;63173;49.086;33.418;2023-09-19T10:18:23;6.13;;;3.85;;
74577;SDS011;63173;49.086;33.418;2023-09-19T10:20:50;10.90;;;3.90;;
74577;SDS011;63173;49.086;33.418;2023-09-19T10:23:20;8.32;;;4.20;;
74577;SDS011;63173;49.086;33.418;2023-09-19T10:25:51;7.28;;;3.65;;
74577;SDS011;63173;49.086;33.418;2023-09-19T10:28:18;10.77;;;3.60;;
74577;SDS011;63173;49.086;33.418;2023-09-19T10:30:47;9.75;;;3.50;;
74577;SDS011;63173;49.086;33.418;2023-09-19T10:35:45;8.82;;;5.20;;
74577;SDS011;63173;49.086;33.418;2023-09-19T10:38:12;7.50;;;3.78;;
74577;SDS011;63173;49.086;33.418;2023-09-19T10:40:39;11.25;;;3.50;;
74577;SDS011;63173;49.086;33.418;2023-09-19T10:43:10;12.02;;;4.82;;
74577;SDS011;63173;49.086;33.418;2023-09-19T10:45:43;5.60;;;2.95;;
74577;SDS011;63173;49.086;33.418;2023-09-19T10:48:11;8.70;;;3.72;;
74577;SDS011;63173;49.086;33.418;2023-09-19T10:50:48;10.43;;;4.00;;
74577;SDS011;63173;49.086;33.418;2023-09-19T10:53:17;6.97;;;3.17;;
74577;SDS011;63173;49.086;33.418;2023-09-19T10:56:01;4.22;;;3.15;;
74577;SDS011;63173;49.086;33.418;2023-09-19T10:58:35;5.65;;;3.20;;
74577;SDS011;63173;49.086;33.418;2023-09-19T11:01:04;12.45;;;3.90;;
74577;SDS011;63173;49.086;33.418;2023-09-19T11:03:37;12.05;;;3.55;;
74577;SDS011;63173;49.086;33.418;2023-09-19T11:06:09;5.93;;;3.80;;
74577;SDS011;63173;49.086;33.418;2023-09-19T11:08:54;9.38;;;4.10;;
74577;SDS011;63173;49.086;33.418;2023-09-19T11:11:50;15.82;;;4.25;;
74577;SDS011;63173;49.086;33.418;2023-09-19T11:30:36;7.05;;;3.75;;
74577;SDS011;63173;49.086;33.418;2023-09-19T11:33:21;15.98;;;4.47;;
74577;SDS011;63173;49.086;33.418;2023-09-19T11:41:55;6.88;;;3.50;;
74577;SDS011;63173;49.086;33.418;2023-09-19T11:46:32;9.25;;;3.78;;
74577;SDS011;63173;49.086;33.418;2023-09-19T11:49:05;8.98;;;3.83;;
74577;SDS011;63173;49.086;33.418;2023-09-19T11:51:41;7.78;;;3.40;;
74577;SDS011;63173;49.086;33.418;2023-09-19T11:54:12;6.55;;;3.92;;
74577;SDS011;63173;49.086;33.418;2023-09-19T11:56:50;8.48;;;3.85;;
74577;SDS011;63173;49.086;33.418;2023-09-19T11:59:26;8.55;;;4.18;;
74577;SDS011;63173;49.086;33.418;2023-09-19T12:01:56;6.43;;;3.45;;
74577;SDS011;63173;49.086;33.418;2023-09-19T12:07:06;7.82;;;3.95;;
74577;SDS011;63173;49.086;33.418;2023-09-19T12:09:39;8.25;;;3.97;;
74577;SDS011;63173;49.086;33.418;2023-09-19T12:12:09;10.63;;;3.75;;
74577;SDS011;63173;49.086;33.418;2023-09-19T12:14:36;15.88;;;4.18;;
74577;SDS011;63173;49.086;33.418;2023-09-19T12:17:04;10.20;;;3.95;;
74577;SDS011;63173;49.086;33.418;2023-09-19T12:19:29;9.95;;;4.03;;
74577;SDS011;63173;49.086;33.418;2023-09-19T12:24:21;9.40;;;4.40;;
74577;SDS011;63173;49.086;33.418;2023-09-19T12:26:47;6.93;;;3.90;;
74577;SDS011;63173;49.086;33.418;2023-09-19T12:29:20;8.40;;;3.88;;
74577;SDS011;63173;49.086;33.418;2023-09-19T12:31:49;10.77;;;4.60;;
74577;SDS011;63173;49.086;33.418;2023-09-19T12:34:20;8.43;;;4.35;;
74577;SDS011;63173;49.086;33.418;2023-09-19T12:36:46;8.88;;;4.00;;
74577;SDS011;63173;49.086;33.418;2023-09-19T12:39:21;8.77;;;3.92;;
74577;SDS011;63173;49.086;33.418;2023-09-19T12:41:48;7.78;;;3.88;;
74577;SDS011;63173;49.086;33.418;2023-09-19T12:44:13;9.68;;;4.70;;
74577;SDS011;63173;49.086;33.418;2023-09-19T12:46:41;10.68;;;3.97;;
74577;SDS011;63173;49.086;33.418;2023-09-19T12:49:17;12.68;;;3.92;;
74577;SDS011;63173;49.086;33.418;2023-09-19T12:51:43;9.45;;;4.25;;
74577;SDS011;63173;49.086;33.418;2023-09-19T12:54:09;9.90;;;4.15;;
74577;SDS011;63173;49.086;33.418;2023-09-19T12:56:41;9.40;;;4.30;;
74577;SDS011;63173;49.086;33.418;2023-09-19T12:59:11;12.75;;;4.03;;
74577;SDS011;63173;49.086;33.418;2023-09-19T13:01:38;9.23;;;4.05;;
74577;SDS011;63173;49.086;33.418;2023-09-19T13:04:11;10.20;;;4.25;;
74577;SDS011;63173;49.086;33.418;2023-09-19T13:06:51;8.18;;;4.40;;
74577;SDS011;63173;49.086;33.418;2023-09-19T13:09:17;7.03;;;4.20;;
74577;SDS011;63173;49.086;33.418;2023-09-19T13:11:42;9.73;;;4.53;;
74577;SDS011;63173;49.086;33.418;2023-09-19T13:14:26;8.88;;;4.13;;
74577;SDS011;63173;49.086;33.418;2023-09-19T13:17:06;9.38;;;4.35;;
74577;SDS011;63173;49.086;33.418;2023-09-19T13:19:49;10.95;;;4.85;;
74577;SDS011;63173;49.086;33.418;2023-09-19T13:25:19;8.50;;;4.30;;
74577;SDS011;63173;49.086;33.418;2023-09-19T13:27:45;10.93;;;4.63;;
74577;SDS011;63173;49.086;33.418;2023-09-19T13:30:11;12.07;;;5.40;;
74577;SDS011;63173;49.086;33.418;2023-09-19T13:32:37;10.57;;;4.82;;
74577;SDS011;63173;49.086;33.418;2023-09-19T13:35:03;12.20;;;4.75;;
74577;SDS011;63173;49.086;33.418;2023-09-19T13:37:30;10.13;;;4.72;;
74577;SDS011;63173;49.086;33.418;2023-09-19T13:39:55;16.52;;;4.85;;
74577;SDS011;63173;49.086;33.418;2023-09-19T13:42:22;12.77;;;6.03;;
74577;SDS011;63173;49.086;33.418;2023-09-19T13:44:49;11.88;;;4.72;;
74577;SDS011;63173;49.086;33.418;2023-09-19T13:47:14;11.40;;;5.38;;
74577;SDS011;63173;49.086;33.418;2023-09-19T13:49:40;16.13;;;5.40;;
74577;SDS011;63173;49.086;33.418;2023-09-19T13:52:05;10.50;;;5.10;;
74577;SDS011;63173;49.086;33.418;2023-09-19T13:54:32;9.57;;;5.28;;
74577;SDS011;63173;49.086;33.418;2023-09-19T13:56:57;14.97;;;5.10;;
74577;SDS011;63173;49.086;33.418;2023-09-19T13:59:22;10.47;;;5.00;;
74577;SDS011;63173;49.086;33.418;2023-09-19T14:01:49;15.23;;;5.60;;
74577;SDS011;63173;49.086;33.418;2023-09-19T14:04:14;16.08;;;5.53;;
74577;SDS011;63173;49.086;33.418;2023-09-19T14:06:41;13.35;;;5.38;;
74577;SDS011;63173;49.086;33.418;2023-09-19T14:09:06;11.57;;;5.25;;
74577;SDS011;63173;49.086;33.418;2023-09-19T14:11:35;9.13;;;5.45;;
74577;SDS011;63173;49.086;33.418;2023-09-19T14:14:01;14.20;;;5.70;;
74577;SDS011;63173;49.086;33.418;2023-09-19T14:16:26;12.37;;;5.80;;
74577;SDS011;63173;49.086;33.418;2023-09-19T14:18:55;10.68;;;5.63;;
74577;SDS011;63173;49.086;33.418;2023-09-19T14:21:20;10.45;;;5.47;;
74577;SDS011;63173;49.086;33.418;2023-09-19T14:23:45;10.50;;;6.30;;
74577;SDS011;63173;49.086;33.418;2023-09-19T14:26:11;20.05;;;7.88;;
74577;SDS011;63173;49.086;33.418;2023-09-19T14:28:36;9.97;;;6.43;;
74577;SDS011;63173;49.086;33.418;2023-09-19T14:31:08;8.70;;;5.68;;
74577;SDS011;63173;49.086;33.418;2023-09-19T14:33:33;11.57;;;5.88;;
74577;SDS011;63173;49.086;33.418;2023-09-19T14:36:02;9.52;;;5.60;;
74577;SDS011;63173;49.086;33.418;2023-09-19T14:38:27;12.85;;;6.25;;
74577;SDS011;63173;49.086;33.418;2023-09-19T14:41:00;10.68;;;5.80;;
74577;SDS011;63173;49.086;33.418;2023-09-19T14:43:26;9.88;;;5.78;;
74577;SDS011;63173;49.086;33.418;2023-09-19T14:45:51;8.68;;;5.47;;
74577;SDS011;63173;49.086;33.418;2023-09-19T14:48:17;10.73;;;6.07;;
74577;SDS011;63173;49.086;33.418;2023-09-19T14:50:42;12.57;;;6.10;;
74577;SDS011;63173;49.086;33.418;2023-09-19T14:53:09;12.48;;;6.38;;
74577;SDS011;63173;49.086;33.418;2023-09-19T14:55:38;15.25;;;6.05;;
74577;SDS011;63173;49.086;33.418;2023-09-19T14:58:06;12.45;;;5.93;;
74577;SDS011;63173;49.086;33.418;2023-09-19T15:00:32;10.18;;;5.75;;
74577;SDS011;63173;49.086;33.418;2023-09-19T15:02:59;15.60;;;6.22;;
74577;SDS011;63173;49.086;33.418;2023-09-19T15:05:24;14.97;;;6.87;;
74577;SDS011;63173;49.086;33.418;2023-09-19T15:07:49;20.13;;;7.10;;
74577;SDS011;63173;49.086;33.418;2023-09-19T15:10:15;11.70;;;5.97;;
74577;SDS011;63173;49.086;33.418;2023-09-19T15:12:41;14.32;;;6.10;;
74577;SDS011;63173;49.086;33.418;2023-09-19T15:15:06;11.43;;;6.10;;
74577;SDS011;63173;49.086;33.418;2023-09-19T15:17:33;20.23;;;6.25;;
74577;SDS011;63173;49.086;33.418;2023-09-19T15:19:59;8.50;;;5.80;;
74577;SDS011;63173;49.086;33.418;2023-09-19T15:22:24;17.70;;;6.05;;
74577;SDS011;63173;49.086;33.418;2023-09-19T15:24:50;9.38;;;5.40;;
74577;SDS011;63173;49.086;33.418;2023-09-19T15:27:16;11.40;;;6.45;;
74577;SDS011;63173;49.086;33.418;2023-09-19T15:29:41;14.95;;;6.63;;
74577;SDS011;63173;49.086;33.418;2023-09-19T15:32:07;14.25;;;6.32;;
74577;SDS011;63173;49.086;33.418;2023-09-19T15:34:32;18.57;;;6.43;;